ASB weather

Ashgabat International Airport
Ashgabat, Ahal, Turkmenistan

Public forecast

Using degrees Celsius for public forecast. Weather courtesy of forecast.io.

Current aviation weather report (METAR) for Ashgabat International Airport

Retrieved 2019/12/07 13:00 UTC (57 minutes ago):

UTAA 071300Z 10006KT 1600 1000NW R12L/1000U R12R/1200N -RA BR OVC003 08/07 Q1025 R88/290055 TEMPO 400 FG

Aviation forecast (TAF) for Ashgabat International Airport

Retrieved 2019/12/07 11:03 UTC (3 hours ago):

TAF UTAA 070950Z 0711/0812 06018KT 1200 -DZ BR OVC003 SCT020CB TEMPO 0711/0714 0400 FG BECMG 0716/0718 0800 FG TEMPO 0716/0803 0200 FG VV002 BECMG 0803/0805 2000 -RA BR BKN004